Time;durP1;ratioP1;P1;durP2;ratioP2;P2;SDS_P1;SDS_P2;PMS_P1;PMS_P2;Temp;Humidity;BMP_temperature;BMP_pressure;BME280_temperature;BME280_humidity;BME280_pressure;Samples;Min_cycle;Max_cycle;Signal;HPM_P1;HPM_P2
2023/12/28 00:02:13;;;;;;;4.70;1.70;;;11.00;99.90;;;;;;5143695;27;20440;-66
2023/12/28 00:04:41;;;;;;;2.80;1.83;;;11.00;99.90;;;;;;5143505;27;20446;-65
2023/12/28 00:07:09;;;;;;;4.80;1.53;;;11.00;99.90;;;;;;5143069;27;20887;-65
2023/12/28 00:09:37;;;;;;;2.10;1.77;;;11.00;99.90;;;;;;5143047;27;20966;-65
2023/12/28 00:12:04;;;;;;;1.90;1.57;;;11.00;99.90;;;;;;5143601;27;20434;-65
2023/12/28 00:14:31;;;;;;;5.90;2.13;;;10.90;99.90;;;;;;5143043;27;20453;-65
2023/12/28 00:16:59;;;;;;;2.60;2.23;;;10.80;99.90;;;;;;5143191;27;20445;-64
2023/12/28 00:19:26;;;;;;;2.27;1.50;;;10.90;99.90;;;;;;5154419;27;20482;-65
2023/12/28 00:21:53;;;;;;;3.27;2.03;;;10.90;99.90;;;;;;5144548;27;20456;-65
2023/12/28 00:24:21;;;;;;;2.13;1.93;;;10.90;99.90;;;;;;5142812;27;20457;-65
2023/12/28 00:26:48;;;;;;;3.00;2.10;;;10.90;99.90;;;;;;5141492;27;20472;-65
2023/12/28 00:29:15;;;;;;;2.50;1.97;;;10.90;99.90;;;;;;5141247;27;20465;-66
2023/12/28 00:31:42;;;;;;;2.97;2.00;;;10.90;99.90;;;;;;5140506;27;20530;-65
2023/12/28 00:34:08;;;;;;;7.90;1.80;;;10.90;99.90;;;;;;5140649;27;20786;-65
2023/12/28 00:36:35;;;;;;;1.97;1.47;;;10.90;99.90;;;;;;5140801;27;20442;-66
2023/12/28 00:39:03;;;;;;;3.43;1.90;;;10.90;99.90;;;;;;5141548;27;20478;-65
2023/12/28 00:41:31;;;;;;;2.60;1.73;;;10.90;99.90;;;;;;5142208;27;20528;-66
2023/12/28 00:43:58;;;;;;;1.90;1.67;;;10.90;99.90;;;;;;5142074;27;20445;-65
2023/12/28 00:46:24;;;;;;;1.90;1.77;;;10.90;99.90;;;;;;5141890;27;20927;-65
2023/12/28 00:48:51;;;;;;;1.63;1.53;;;10.80;99.90;;;;;;5142235;27;20461;-65
2023/12/28 00:51:18;;;;;;;3.03;2.20;;;10.80;99.90;;;;;;5141382;27;20430;-66
2023/12/28 00:53:45;;;;;;;1.67;1.57;;;10.80;99.90;;;;;;5142649;27;20445;-65
2023/12/28 00:56:12;;;;;;;2.33;1.83;;;10.80;99.90;;;;;;5141532;27;20453;-65
2023/12/28 00:58:43;;;;;;;5.03;2.23;;;10.80;99.90;;;;;;5141070;27;21015;-65
2023/12/28 01:01:10;;;;;;;2.20;1.60;;;10.80;99.90;;;;;;5122723;27;20549;-65
2023/12/28 01:03:37;;;;;;;3.80;2.00;;;10.80;99.90;;;;;;5142241;27;20449;-66
2023/12/28 01:06:05;;;;;;;2.70;2.50;;;10.80;99.90;;;;;;5141862;27;20498;-65
2023/12/28 01:08:33;;;;;;;3.00;2.67;;;10.80;99.90;;;;;;5138199;27;20434;-65
2023/12/28 01:11:00;;;;;;;4.07;2.30;;;10.90;99.90;;;;;;5137669;27;20510;-64
2023/12/28 01:13:26;;;;;;;3.70;1.90;;;10.90;99.90;;;;;;5138609;27;20444;-65
2023/12/28 01:15:54;;;;;;;2.67;2.00;;;10.90;99.90;;;;;;5139557;27;20807;-66
2023/12/28 01:18:21;;;;;;;6.00;1.97;;;10.90;99.90;;;;;;5139820;27;20216;-66
2023/12/28 01:20:48;;;;;;;3.33;1.90;;;11.00;99.90;;;;;;5118255;27;20513;-65
2023/12/28 01:23:15;;;;;;;8.63;2.10;;;11.00;99.90;;;;;;5137481;27;20550;-66
2023/12/28 01:25:42;;;;;;;2.33;2.13;;;11.00;99.90;;;;;;5136484;27;20926;-66
2023/12/28 01:28:09;;;;;;;2.03;1.83;;;11.00;99.90;;;;;;5137413;27;20434;-66
2023/12/28 01:30:35;;;;;;;2.30;2.10;;;11.00;99.90;;;;;;5137418;27;20465;-65
2023/12/28 01:33:04;;;;;;;3.83;2.30;;;11.00;99.90;;;;;;5138074;27;20934;-66
2023/12/28 01:35:31;;;;;;;4.60;1.97;;;11.00;99.90;;;;;;5137834;27;20953;-65
2023/12/28 01:38:00;;;;;;;4.50;2.00;;;11.00;99.90;;;;;;5137911;27;20442;-66
2023/12/28 01:40:28;;;;;;;3.67;2.33;;;11.00;99.90;;;;;;5137375;27;20473;-65
2023/12/28 01:42:54;;;;;;;6.30;2.20;;;11.10;99.90;;;;;;5137405;27;20450;-65
2023/12/28 01:45:22;;;;;;;3.10;2.10;;;11.00;99.90;;;;;;5137492;27;20442;-65
2023/12/28 01:47:49;;;;;;;3.93;2.00;;;11.10;99.90;;;;;;5137466;27;20430;-65
2023/12/28 01:50:19;;;;;;;7.27;2.20;;;11.00;99.90;;;;;;5137608;27;20472;-65
2023/12/28 01:52:46;;;;;;;2.03;1.60;;;11.10;99.90;;;;;;5137195;27;20434;-66
2023/12/28 01:55:14;;;;;;;4.70;2.40;;;11.10;99.90;;;;;;5137454;27;20452;-66
2023/12/28 01:57:41;;;;;;;3.13;1.77;;;11.10;99.90;;;;;;5137959;27;20441;-65
2023/12/28 02:00:11;;;;;;;2.30;2.10;;;11.00;99.90;;;;;;5138598;27;20485;-65
2023/12/28 02:02:39;;;;;;;3.70;2.27;;;11.10;99.90;;;;;;5138460;27;20438;-65
2023/12/28 02:05:06;;;;;;;5.43;2.17;;;11.10;99.90;;;;;;5138647;27;20449;-65
2023/12/28 02:07:37;;;;;;;3.30;2.30;;;11.10;99.90;;;;;;5138313;27;20943;-66
2023/12/28 02:10:04;;;;;;;2.80;1.80;;;11.10;99.90;;;;;;5138977;27;20458;-65
2023/12/28 02:12:31;;;;;;;2.60;2.00;;;11.10;99.90;;;;;;5120843;27;20474;-65
2023/12/28 02:14:59;;;;;;;4.83;2.17;;;11.10;99.90;;;;;;5140702;27;20446;-66
2023/12/28 02:17:29;;;;;;;5.23;3.10;;;11.10;99.90;;;;;;5140542;27;20450;-66
2023/12/28 02:19:59;;;;;;;5.83;2.70;;;11.10;99.90;;;;;;5139441;27;20493;-66
2023/12/28 02:22:26;;;;;;;3.27;3.00;;;11.10;99.90;;;;;;5139709;27;20943;-66
2023/12/28 02:25:01;;;;;;;3.77;2.47;;;11.10;99.90;;;;;;5139560;27;20442;-66
2023/12/28 02:27:28;;;;;;;3.50;2.70;;;11.20;99.90;;;;;;5139317;27;20425;-66
2023/12/28 02:29:56;;;;;;;3.67;2.30;;;11.20;99.90;;;;;;5139543;27;20457;-65
2023/12/28 02:32:30;;;;;;;3.90;2.23;;;11.20;99.90;;;;;;5139201;27;20445;-65
2023/12/28 02:35:03;;;;;;;4.20;2.70;;;11.20;99.90;;;;;;5137925;27;20437;-65
2023/12/28 02:37:31;;;;;;;5.57;2.73;;;11.20;99.90;;;;;;5138519;27;20430;-65
2023/12/28 02:39:59;;;;;;;5.20;2.30;;;11.20;99.90;;;;;;5135310;27;20497;-65
2023/12/28 02:42:26;;;;;;;3.03;2.37;;;11.20;99.90;;;;;;5142109;27;20446;-66
2023/12/28 02:44:53;;;;;;;3.60;3.10;;;11.10;99.90;;;;;;5139717;27;20441;-66
2023/12/28 02:47:20;;;;;;;2.40;2.20;;;11.20;99.90;;;;;;5140066;27;20445;-65
2023/12/28 02:49:46;;;;;;;4.20;2.97;;;11.20;99.90;;;;;;5119834;28;20485;-65
2023/12/28 02:52:13;;;;;;;3.27;2.47;;;11.20;99.90;;;;;;5138988;27;20446;-65
2023/12/28 02:54:40;;;;;;;3.00;2.50;;;11.20;99.90;;;;;;5140207;28;20461;-66
2023/12/28 02:57:08;;;;;;;4.43;2.13;;;11.20;99.90;;;;;;5139246;28;20456;-65
2023/12/28 02:59:34;;;;;;;6.10;2.30;;;11.20;99.90;;;;;;5139328;28;20485;-65
2023/12/28 03:02:01;;;;;;;3.40;2.60;;;11.20;99.90;;;;;;5139625;28;20461;-66
2023/12/28 03:04:28;;;;;;;5.17;2.20;;;11.20;99.90;;;;;;5139391;28;20476;-65
2023/12/28 03:06:55;;;;;;;4.03;2.27;;;11.20;99.90;;;;;;5139128;28;20823;-65
2023/12/28 03:09:24;;;;;;;2.37;2.17;;;11.20;99.90;;;;;;5139580;28;20458;-65
2023/12/28 03:11:51;;;;;;;5.13;2.43;;;11.20;99.90;;;;;;5139855;28;20443;-65
2023/12/28 03:14:21;;;;;;;2.50;2.30;;;11.20;99.90;;;;;;5121115;28;21007;-66
2023/12/28 03:16:47;;;;;;;4.13;1.97;;;11.20;99.90;;;;;;5121943;28;20495;-65
2023/12/28 03:19:14;;;;;;;3.73;2.30;;;11.20;99.90;;;;;;5142022;28;20489;-65
2023/12/28 03:21:42;;;;;;;2.50;2.17;;;11.20;99.90;;;;;;5139390;28;20442;-65
2023/12/28 03:24:08;;;;;;;7.00;2.30;;;11.20;99.90;;;;;;5139920;28;20438;-65
2023/12/28 03:26:39;;;;;;;4.87;2.30;;;11.20;99.90;;;;;;5139265;28;20442;-65
2023/12/28 03:29:06;;;;;;;2.30;2.10;;;11.10;99.90;;;;;;5139424;28;20571;-65
2023/12/28 03:31:39;;;;;;;2.53;2.30;;;11.20;99.90;;;;;;5139510;28;20438;-66
2023/12/28 03:34:06;;;;;;;5.20;1.93;;;11.20;99.90;;;;;;5140259;28;20430;-66
2023/12/28 03:36:33;;;;;;;9.37;2.60;;;11.20;99.90;;;;;;5139462;28;20785;-65
2023/12/28 03:39:00;;;;;;;4.77;2.60;;;11.20;99.90;;;;;;5139288;28;21025;-65
2023/12/28 03:41:27;;;;;;;3.13;2.20;;;11.20;99.90;;;;;;5139451;28;20807;-66
2023/12/28 03:43:53;;;;;;;4.97;2.40;;;11.20;99.90;;;;;;5139671;28;20437;-65
2023/12/28 03:46:20;;;;;;;4.93;2.40;;;11.10;99.90;;;;;;5139635;28;20852;-66
2023/12/28 03:48:48;;;;;;;2.93;1.97;;;11.10;99.90;;;;;;5140287;28;20426;-65
2023/12/28 03:51:15;;;;;;;3.33;2.37;;;11.10;99.90;;;;;;5138675;28;20465;-65
2023/12/28 03:53:42;;;;;;;4.03;2.30;;;11.10;99.90;;;;;;5139455;28;20495;-65
2023/12/28 03:56:09;;;;;;;3.60;1.80;;;11.10;99.90;;;;;;5138678;28;20960;-65
2023/12/28 03:58:35;;;;;;;3.87;2.03;;;11.10;99.90;;;;;;5139748;28;20430;-65
2023/12/28 04:01:02;;;;;;;5.77;2.57;;;11.10;99.90;;;;;;5139086;27;20462;-65
2023/12/28 04:03:29;;;;;;;4.60;1.90;;;11.20;99.90;;;;;;5142274;27;20465;-66
2023/12/28 04:05:57;;;;;;;5.20;2.50;;;11.20;99.90;;;;;;5142803;27;20441;-65
2023/12/28 04:08:24;;;;;;;3.80;2.07;;;11.20;99.90;;;;;;5143134;27;20446;-65
2023/12/28 04:10:51;;;;;;;5.67;2.47;;;11.20;99.90;;;;;;5142670;27;20466;-65
2023/12/28 04:13:17;;;;;;;3.97;2.27;;;11.20;99.90;;;;;;5142610;27;20442;-66
2023/12/28 04:15:44;;;;;;;2.40;2.20;;;11.20;99.90;;;;;;5142581;27;20441;-66
2023/12/28 04:18:11;;;;;;;4.97;2.40;;;11.10;99.90;;;;;;5143379;27;20438;-66
2023/12/28 04:20:38;;;;;;;3.87;2.10;;;11.10;99.90;;;;;;5142938;27;20485;-65
2023/12/28 04:23:06;;;;;;;2.30;2.00;;;11.10;99.90;;;;;;5142267;27;20450;-66
2023/12/28 04:25:32;;;;;;;4.70;2.40;;;11.10;99.90;;;;;;5142936;27;20446;-65
2023/12/28 04:27:59;;;;;;;4.10;2.00;;;11.10;99.90;;;;;;5122792;27;20490;-65
2023/12/28 04:30:27;;;;;;;2.13;1.93;;;11.10;99.90;;;;;;5141099;27;20462;-65
2023/12/28 04:32:54;;;;;;;2.13;1.80;;;11.10;99.90;;;;;;5141153;27;20799;-66
2023/12/28 04:35:20;;;;;;;2.87;2.00;;;11.10;99.90;;;;;;5122572;27;20446;-66
2023/12/28 04:37:47;;;;;;;2.83;1.97;;;11.10;99.90;;;;;;5140400;27;20494;-65
2023/12/28 04:40:17;;;;;;;4.43;1.90;;;11.10;99.90;;;;;;5140881;27;20508;-65
2023/12/28 04:42:43;;;;;;;2.50;1.87;;;11.20;99.90;;;;;;5141008;27;20446;-65
2023/12/28 04:45:10;;;;;;;3.73;2.40;;;11.20;99.90;;;;;;5141355;27;20438;-65
2023/12/28 04:47:37;;;;;;;4.73;2.03;;;11.20;99.90;;;;;;5140567;27;20981;-65
2023/12/28 04:50:05;;;;;;;2.40;2.20;;;11.20;99.90;;;;;;5140751;27;20462;-65
2023/12/28 04:52:32;;;;;;;2.50;1.90;;;11.20;99.90;;;;;;5140492;27;20450;-65
2023/12/28 04:54:59;;;;;;;5.60;2.10;;;11.20;99.90;;;;;;5140616;27;20454;-66
2023/12/28 04:57:29;;;;;;;3.10;2.00;;;11.20;99.90;;;;;;5142657;27;20438;-66
2023/12/28 04:59:57;;;;;;;6.27;2.80;;;11.20;99.90;;;;;;5145999;27;20465;-65
2023/12/28 05:02:24;;;;;;;3.20;1.90;;;11.20;99.90;;;;;;5158826;27;20438;-65
2023/12/28 05:04:51;;;;;;;2.53;1.90;;;11.20;99.90;;;;;;5146041;27;20438;-66
2023/12/28 05:07:17;;;;;;;5.43;3.17;;;11.20;99.90;;;;;;5123551;27;20450;-66
2023/12/28 05:09:44;;;;;;;3.00;1.80;;;11.20;99.90;;;;;;5140292;27;20461;-66
2023/12/28 05:12:13;;;;;;;4.70;1.90;;;11.20;99.90;;;;;;5140228;27;20477;-66
2023/12/28 05:14:41;;;;;;;5.40;2.30;;;11.30;99.90;;;;;;5139924;27;20479;-66
2023/12/28 05:17:07;;;;;;;3.47;2.20;;;11.20;99.90;;;;;;5140174;27;20450;-66
2023/12/28 05:19:34;;;;;;;5.27;2.00;;;11.20;99.90;;;;;;5139908;27;20513;-66
2023/12/28 05:22:03;;;;;;;2.97;1.70;;;11.30;99.90;;;;;;5139986;27;20491;-65
2023/12/28 05:24:30;;;;;;;5.50;2.30;;;11.30;99.90;;;;;;5140709;27;20442;-65
2023/12/28 05:26:57;;;;;;;2.60;1.40;;;11.30;99.90;;;;;;5122095;27;20471;-66
2023/12/28 05:29:23;;;;;;;4.17;2.27;;;11.30;99.90;;;;;;5140512;27;20464;-66
2023/12/28 05:31:52;;;;;;;2.93;1.87;;;11.30;99.90;;;;;;5140277;27;20445;-66
2023/12/28 05:34:18;;;;;;;4.53;2.00;;;11.30;99.90;;;;;;5140271;27;20441;-65
2023/12/28 05:36:46;;;;;;;2.00;1.80;;;11.40;99.90;;;;;;5140315;27;20860;-65
2023/12/28 05:39:13;;;;;;;1.70;1.33;;;11.40;99.90;;;;;;5140140;27;20469;-65
2023/12/28 05:41:40;;;;;;;2.93;2.23;;;11.40;99.90;;;;;;5140777;27;20498;-65
2023/12/28 05:44:07;;;;;;;4.87;1.70;;;11.40;99.90;;;;;;5139610;27;20981;-65
2023/12/28 05:46:35;;;;;;;3.60;2.10;;;11.40;99.90;;;;;;5140515;27;20443;-66
2023/12/28 05:49:03;;;;;;;6.23;1.93;;;11.40;99.90;;;;;;5139582;27;20445;-64
2023/12/28 05:51:30;;;;;;;3.03;2.30;;;11.40;99.90;;;;;;5143169;27;20438;-66
2023/12/28 05:53:56;;;;;;;6.20;2.00;;;11.40;99.90;;;;;;5144588;27;20449;-66
2023/12/28 05:56:23;;;;;;;2.80;1.90;;;11.40;99.90;;;;;;5141356;27;20461;-66
2023/12/28 05:58:50;;;;;;;3.93;1.73;;;11.30;99.90;;;;;;5141602;27;20438;-67
2023/12/28 06:01:17;;;;;;;7.30;1.93;;;11.30;99.90;;;;;;5141151;27;20478;-67
2023/12/28 06:03:43;;;;;;;3.90;2.20;;;11.40;99.90;;;;;;5140659;27;20438;-67
2023/12/28 06:06:11;;;;;;;4.17;2.13;;;11.40;99.90;;;;;;5141037;27;20796;-67
2023/12/28 06:08:38;;;;;;;9.27;2.23;;;11.40;99.90;;;;;;5139381;27;20856;-67
2023/12/28 06:11:05;;;;;;;4.47;2.03;;;11.40;99.90;;;;;;5120624;27;20486;-67
2023/12/28 06:13:32;;;;;;;5.23;2.30;;;11.40;99.90;;;;;;5138332;27;20528;-66
2023/12/28 06:15:59;;;;;;;7.43;1.97;;;11.40;99.90;;;;;;5137634;27;20449;-67
2023/12/28 06:18:25;;;;;;;8.57;2.30;;;11.40;99.90;;;;;;5137393;27;20438;-67
2023/12/28 06:20:52;;;;;;;3.87;2.20;;;11.40;99.90;;;;;;5137297;27;20478;-67
2023/12/28 06:23:20;;;;;;;4.37;1.87;;;11.30;99.90;;;;;;5137844;27;20438;-67
2023/12/28 06:25:47;;;;;;;2.50;1.80;;;11.40;99.90;;;;;;5136390;27;20434;-67
2023/12/28 06:28:14;;;;;;;4.27;2.33;;;11.30;99.90;;;;;;5137218;27;20441;-66
2023/12/28 06:30:40;;;;;;;6.70;2.10;;;11.40;99.90;;;;;;5136409;27;20458;-66
2023/12/28 06:33:07;;;;;;;5.30;2.27;;;11.30;99.90;;;;;;5135647;27;20954;-66
2023/12/28 06:35:34;;;;;;;7.00;2.37;;;11.40;99.90;;;;;;5135776;27;20442;-66
2023/12/28 06:38:02;;;;;;;8.20;2.77;;;11.40;99.90;;;;;;5135795;27;20441;-66
2023/12/28 06:40:30;;;;;;;4.77;2.03;;;11.40;99.90;;;;;;5135270;27;20482;-66
2023/12/28 06:42:56;;;;;;;2.23;1.70;;;11.50;99.90;;;;;;5136480;27;20554;-66
2023/12/28 06:45:27;;;;;;;7.67;2.00;;;11.50;99.90;;;;;;5135582;27;20444;-66
2023/12/28 06:47:54;;;;;;;4.80;2.50;;;11.50;99.90;;;;;;5136305;27;20431;-66
2023/12/28 06:50:21;;;;;;;6.47;1.73;;;11.50;99.90;;;;;;5136253;27;20458;-66
2023/12/28 06:52:47;;;;;;;7.13;1.70;;;11.50;99.90;;;;;;5135787;27;20438;-66
2023/12/28 06:55:14;;;;;;;8.10;2.43;;;11.50;99.90;;;;;;5135064;27;20457;-66
2023/12/28 06:57:42;;;;;;;6.60;2.20;;;11.50;99.90;;;;;;5135357;28;20442;-66
2023/12/28 07:00:10;;;;;;;7.80;1.90;;;11.60;99.90;;;;;;5134522;28;20854;-66
2023/12/28 07:02:37;;;;;;;4.37;2.20;;;11.50;99.90;;;;;;5135316;28;20449;-66
2023/12/28 07:05:04;;;;;;;4.50;2.13;;;11.50;99.90;;;;;;5116651;28;20473;-66
2023/12/28 07:07:31;;;;;;;5.60;2.00;;;11.50;99.90;;;;;;5134854;28;20442;-66
2023/12/28 07:09:58;;;;;;;5.40;2.00;;;11.40;99.90;;;;;;5134833;28;20454;-67
2023/12/28 07:12:25;;;;;;;5.13;1.90;;;11.50;99.90;;;;;;5115836;28;20439;-66
2023/12/28 07:14:53;;;;;;;6.13;2.27;;;11.50;99.90;;;;;;5134604;28;20446;-67
2023/12/28 07:17:20;;;;;;;4.70;2.23;;;11.50;99.90;;;;;;5134305;28;20445;-66
2023/12/28 07:19:46;;;;;;;2.70;1.60;;;11.50;99.90;;;;;;5135533;28;20511;-66
2023/12/28 07:22:13;;;;;;;4.83;2.37;;;11.50;99.90;;;;;;5150744;28;20485;-66
2023/12/28 07:24:40;;;;;;;8.60;3.97;;;11.40;99.90;;;;;;5139691;28;20491;-67
2023/12/28 07:27:07;;;;;;;4.47;2.00;;;11.50;99.90;;;;;;5138551;28;20445;-67
2023/12/28 07:29:34;;;;;;;6.90;2.10;;;11.50;99.90;;;;;;5135658;28;20457;-66
2023/12/28 07:32:02;;;;;;;7.93;2.17;;;11.50;99.90;;;;;;5135438;28;20446;-67
2023/12/28 07:34:28;;;;;;;7.40;2.43;;;11.50;99.90;;;;;;5135188;28;20438;-66
2023/12/28 07:36:55;;;;;;;11.47;2.30;;;11.50;99.90;;;;;;5135828;27;20450;-66
2023/12/28 07:39:22;;;;;;;3.30;1.80;;;11.50;99.90;;;;;;5138851;27;20487;-67
2023/12/28 07:41:49;;;;;;;8.63;2.10;;;11.50;99.90;;;;;;5139272;27;20474;-67
2023/12/28 07:44:16;;;;;;;6.40;2.03;;;11.40;99.90;;;;;;5139330;27;20448;-67
2023/12/28 07:46:43;;;;;;;8.33;2.40;;;11.50;99.90;;;;;;5139146;27;20442;-66
2023/12/28 07:49:11;;;;;;;4.53;2.10;;;11.50;99.90;;;;;;5120738;27;20445;-67
2023/12/28 07:51:38;;;;;;;8.03;2.00;;;11.50;99.90;;;;;;5138580;27;20434;-66
2023/12/28 07:54:05;;;;;;;8.63;2.43;;;11.40;99.90;;;;;;5138607;27;20446;-66
2023/12/28 07:56:31;;;;;;;6.03;2.10;;;11.40;99.90;;;;;;5138315;27;20449;-66
2023/12/28 07:58:58;;;;;;;7.27;2.20;;;11.40;99.90;;;;;;5138269;27;20441;-67
2023/12/28 08:01:25;;;;;;;7.90;2.03;;;11.50;99.90;;;;;;5138180;27;20474;-66
2023/12/28 08:03:53;;;;;;;6.17;1.97;;;11.40;99.90;;;;;;5138507;27;20437;-66
2023/12/28 08:06:21;;;;;;;5.63;2.00;;;11.50;99.90;;;;;;5138072;27;20437;-66
2023/12/28 08:08:48;;;;;;;16.73;2.60;;;11.40;99.90;;;;;;5138114;27;20815;-66
2023/12/28 08:11:15;;;;;;;9.77;2.33;;;11.50;99.90;;;;;;5137835;27;20532;-67
2023/12/28 08:13:41;;;;;;;6.57;1.77;;;11.40;99.90;;;;;;5137715;27;20953;-67
2023/12/28 08:16:08;;;;;;;4.93;1.80;;;11.50;99.90;;;;;;5137765;27;20449;-66
2023/12/28 08:18:35;;;;;;;10.00;1.87;;;11.50;99.90;;;;;;5137811;27;20442;-67
2023/12/28 08:21:02;;;;;;;5.07;2.13;;;11.50;99.90;;;;;;5137085;27;20489;-67
2023/12/28 08:23:30;;;;;;;5.60;2.33;;;11.50;99.90;;;;;;5138655;27;20434;-66
2023/12/28 08:25:57;;;;;;;6.90;1.90;;;11.60;99.90;;;;;;5137190;27;20959;-66
2023/12/28 08:28:23;;;;;;;3.10;1.63;;;11.60;99.90;;;;;;5137270;27;20452;-65
2023/12/28 08:30:50;;;;;;;8.10;2.20;;;11.60;99.90;;;;;;5136820;27;20820;-65
2023/12/28 08:33:17;;;;;;;9.47;2.57;;;11.60;99.90;;;;;;5136891;27;20960;-65
2023/12/28 08:35:44;;;;;;;10.50;2.23;;;11.60;99.90;;;;;;5137024;27;20437;-65
2023/12/28 08:38:11;;;;;;;8.33;2.17;;;11.40;99.90;;;;;;5136936;27;20927;-65
2023/12/28 08:40:39;;;;;;;13.03;2.20;;;11.40;99.90;;;;;;5136874;27;20489;-65
2023/12/28 08:43:06;;;;;;;5.20;2.90;;;11.40;99.90;;;;;;5136985;27;20446;-65
2023/12/28 08:45:34;;;;;;;5.20;1.90;;;11.50;99.90;;;;;;5136885;27;20446;-65
2023/12/28 08:48:01;;;;;;;5.27;1.87;;;11.50;99.90;;;;;;5136411;27;20866;-65
2023/12/28 08:50:27;;;;;;;8.73;2.20;;;11.60;99.90;;;;;;5136675;27;20512;-65
2023/12/28 08:52:54;;;;;;;6.87;2.20;;;11.60;99.90;;;;;;5136767;27;20446;-65
2023/12/28 08:55:22;;;;;;;6.73;2.97;;;11.60;99.90;;;;;;5136174;27;20811;-66
2023/12/28 08:57:50;;;;;;;7.70;2.60;;;11.70;99.90;;;;;;5118043;27;21027;-65
2023/12/28 09:00:17;;;;;;;7.37;1.90;;;11.70;99.90;;;;;;5136413;27;20990;-65
2023/12/28 09:02:44;;;;;;;10.67;2.20;;;11.80;99.90;;;;;;5136152;27;20445;-65
2023/12/28 09:05:11;;;;;;;7.00;2.93;;;11.90;99.90;;;;;;5136222;27;20822;-66
2023/12/28 09:07:42;;;;;;;16.43;2.33;;;12.00;99.90;;;;;;5136295;27;20446;-66
2023/12/28 09:10:10;;;;;;;8.17;1.70;;;12.00;99.90;;;;;;5136132;27;20958;-67
2023/12/28 09:12:37;;;;;;;6.60;2.37;;;12.00;99.90;;;;;;5118094;27;20470;-66
2023/12/28 09:15:07;;;;;;;4.50;1.73;;;12.00;99.90;;;;;;5136563;27;20473;-66
2023/12/28 09:17:34;;;;;;;7.17;2.23;;;12.10;99.90;;;;;;5136247;27;20446;-66
2023/12/28 09:20:01;;;;;;;6.67;2.10;;;12.10;99.90;;;;;;5135826;27;20978;-66
2023/12/28 09:22:28;;;;;;;10.00;2.43;;;12.20;99.90;;;;;;5135804;27;20538;-66
2023/12/28 09:24:55;;;;;;;10.23;2.57;;;12.20;99.90;;;;;;5135743;27;21053;-66
2023/12/28 09:27:21;;;;;;;7.43;2.47;;;12.30;99.90;;;;;;5136089;27;20446;-67
2023/12/28 09:29:48;;;;;;;8.60;2.37;;;12.30;99.90;;;;;;5136276;27;20458;-67
2023/12/28 09:32:17;;;;;;;8.03;2.10;;;12.40;99.90;;;;;;5136221;27;20430;-67
2023/12/28 09:34:44;;;;;;;9.33;2.20;;;12.50;99.90;;;;;;5150612;27;20897;-73
2023/12/28 09:37:11;;;;;;;10.67;2.10;;;12.50;99.90;;;;;;5142884;27;20445;-70
2023/12/28 09:39:37;;;;;;;11.63;2.40;;;12.60;99.90;;;;;;5140277;27;21018;-71
2023/12/28 09:42:07;;;;;;;14.30;2.30;;;12.70;99.90;;;;;;5138730;27;20481;-70
2023/12/28 09:44:37;;;;;;;9.80;2.20;;;12.70;99.90;;;;;;5139277;27;20770;-74
2023/12/28 09:47:06;;;;;;;9.50;2.20;;;12.70;99.80;;;;;;5138787;27;20442;-72
2023/12/28 09:49:37;;;;;;;9.13;2.70;;;12.70;99.90;;;;;;5136616;27;20470;-72
2023/12/28 09:52:05;;;;;;;8.83;2.10;;;12.70;99.90;;;;;;5119259;27;20437;-72
2023/12/28 09:54:32;;;;;;;7.90;2.23;;;12.70;99.90;;;;;;5118459;27;20804;-73
2023/12/28 09:56:59;;;;;;;10.30;2.60;;;12.80;99.90;;;;;;5136799;27;20932;-73
2023/12/28 09:59:27;;;;;;;8.20;2.13;;;12.80;99.90;;;;;;5135679;27;20868;-73
2023/12/28 10:01:56;;;;;;;7.00;1.70;;;12.80;99.70;;;;;;5136376;27;20477;-72
2023/12/28 10:04:23;;;;;;;7.13;1.87;;;12.80;99.90;;;;;;5136058;27;20442;-72
2023/12/28 10:06:51;;;;;;;6.50;1.73;;;12.90;99.90;;;;;;5117860;27;20449;-72
2023/12/28 10:09:18;;;;;;;10.30;2.43;;;12.90;99.80;;;;;;5135805;27;20508;-73
2023/12/28 10:11:45;;;;;;;7.20;2.13;;;12.90;99.90;;;;;;5135124;27;20439;-72
2023/12/28 10:14:13;;;;;;;13.27;2.87;;;13.00;99.60;;;;;;5135367;27;20438;-72
2023/12/28 10:16:41;;;;;;;12.77;2.17;;;13.00;99.60;;;;;;5118167;27;20450;-72
2023/12/28 10:19:08;;;;;;;9.77;2.30;;;12.90;99.30;;;;;;5136836;27;20446;-72
2023/12/28 10:21:36;;;;;;;5.20;2.10;;;13.00;99.40;;;;;;5135816;27;20474;-73
2023/12/28 10:24:05;;;;;;;10.43;3.37;;;12.90;99.30;;;;;;5135221;27;20947;-72
2023/12/28 10:26:32;;;;;;;6.77;2.00;;;13.00;99.30;;;;;;5135681;27;20448;-72
2023/12/28 10:29:00;;;;;;;10.83;3.00;;;13.00;98.90;;;;;;5134616;27;20442;-72
2023/12/28 10:31:27;;;;;;;8.53;2.03;;;13.00;98.60;;;;;;5135107;27;20434;-71
2023/12/28 10:33:54;;;;;;;8.13;2.03;;;13.10;98.90;;;;;;5134730;27;20446;-72
2023/12/28 10:36:24;;;;;;;8.10;2.10;;;13.20;99.10;;;;;;5135275;27;20442;-72
2023/12/28 10:38:54;;;;;;;9.10;1.90;;;13.00;98.80;;;;;;5118596;27;20519;-68
2023/12/28 10:41:23;;;;;;;7.20;2.10;;;13.10;98.60;;;;;;5137757;27;20478;-69
2023/12/28 10:44:03;;;;;;;8.30;2.33;;;13.00;98.70;;;;;;5137358;27;20823;-69
2023/12/28 10:46:32;;;;;;;9.63;1.87;;;13.00;98.60;;;;;;5119203;27;20499;-69
2023/12/28 10:49:04;;;;;;;12.03;2.97;;;12.90;98.80;;;;;;5136982;27;20465;-68
2023/12/28 10:51:34;;;;;;;6.27;2.40;;;13.00;99.00;;;;;;5136293;27;20903;-68
2023/12/28 10:54:16;;;;;;;6.63;2.00;;;13.10;99.20;;;;;;5136975;28;20450;-68
2023/12/28 10:56:48;;;;;;;5.83;2.23;;;13.00;98.60;;;;;;5136844;27;20411;-68
2023/12/28 10:59:25;;;;;;;8.07;1.90;;;13.00;98.50;;;;;;5136820;28;20458;-68
2023/12/28 11:01:56;;;;;;;8.60;2.30;;;13.00;98.40;;;;;;5138016;28;21057;-68
2023/12/28 11:04:30;;;;;;;7.10;1.50;;;13.00;98.50;;;;;;5136909;28;20442;-68
2023/12/28 11:06:58;;;;;;;6.60;2.20;;;13.00;98.30;;;;;;5118868;28;20456;-68
2023/12/28 11:09:27;;;;;;;8.80;2.50;;;13.10;98.30;;;;;;5136024;28;20454;-68
2023/12/28 11:11:59;;;;;;;6.80;1.93;;;13.10;97.90;;;;;;5138990;27;20984;-68
2023/12/28 11:14:28;;;;;;;6.43;2.10;;;13.10;97.70;;;;;;5140666;27;20774;-68
2023/12/28 11:16:55;;;;;;;10.87;1.90;;;13.10;97.70;;;;;;5139714;27;20454;-69
2023/12/28 11:19:22;;;;;;;10.77;2.60;;;13.10;97.60;;;;;;5140372;27;20469;-69
2023/12/28 11:21:50;;;;;;;11.47;2.30;;;13.00;97.40;;;;;;5141376;27;20482;-69
2023/12/28 11:24:19;;;;;;;10.00;1.93;;;13.10;98.00;;;;;;5141463;27;20446;-69
2023/12/28 11:26:53;;;;;;;8.80;1.67;;;13.10;97.80;;;;;;5141641;27;20949;-69
2023/12/28 11:29:21;;;;;;;4.73;1.17;;;13.10;97.40;;;;;;5141373;27;20545;-69
2023/12/28 11:31:52;;;;;;;11.87;2.60;;;13.20;97.30;;;;;;5140719;27;20446;-69
2023/12/28 11:34:20;;;;;;;5.67;2.27;;;13.30;97.50;;;;;;5141016;27;20433;-69
2023/12/28 11:36:50;;;;;;;8.10;1.93;;;13.40;97.10;;;;;;5122486;27;20458;-69
2023/12/28 11:39:27;;;;;;;5.17;1.70;;;13.50;96.80;;;;;;5140683;27;20503;-70
2023/12/28 11:42:01;;;;;;;6.43;1.97;;;13.60;96.50;;;;;;5140534;27;20469;-68
2023/12/28 11:44:29;;;;;;;8.20;1.50;;;13.70;96.10;;;;;;5132345;27;20442;-69
2023/12/28 11:46:57;;;;;;;11.67;2.17;;;13.90;96.00;;;;;;5150738;27;20450;-69
2023/12/28 11:49:28;;;;;;;10.73;1.90;;;13.90;95.70;;;;;;5126580;27;20482;-69
2023/12/28 11:51:57;;;;;;;8.00;2.27;;;13.90;95.40;;;;;;5143195;27;20426;-69
2023/12/28 11:54:26;;;;;;;11.43;2.60;;;13.80;95.40;;;;;;5141680;27;20450;-69
2023/12/28 11:56:53;;;;;;;9.60;1.80;;;13.80;95.60;;;;;;5123367;27;20454;-69
2023/12/28 11:59:20;;;;;;;6.93;1.80;;;13.80;95.70;;;;;;5140749;27;20456;-69
2023/12/28 12:01:52;;;;;;;7.20;2.00;;;13.80;96.00;;;;;;5122005;27;20488;-69
2023/12/28 12:04:19;;;;;;;10.27;2.10;;;13.80;95.60;;;;;;5141348;27;20418;-69
2023/12/28 12:06:47;;;;;;;6.50;2.47;;;13.80;95.50;;;;;;5140172;27;20498;-69
2023/12/28 12:09:14;;;;;;;6.67;2.00;;;13.80;95.60;;;;;;5121836;27;20461;-69
2023/12/28 12:11:41;;;;;;;15.60;2.00;;;13.80;95.60;;;;;;5121129;27;20818;-69
2023/12/28 12:14:10;;;;;;;6.80;2.00;;;13.80;95.80;;;;;;5139263;27;20452;-69
2023/12/28 12:16:37;;;;;;;8.27;1.80;;;13.80;95.60;;;;;;5138936;27;20446;-69
2023/12/28 12:19:06;;;;;;;9.30;1.73;;;13.80;95.70;;;;;;5139604;27;20471;-69
2023/12/28 12:21:34;;;;;;;4.20;2.00;;;13.80;94.90;;;;;;5140387;27;20513;-69
2023/12/28 12:24:02;;;;;;;5.40;2.00;;;13.80;95.30;;;;;;5120501;27;20469;-69
2023/12/28 12:26:31;;;;;;;7.10;2.00;;;13.80;95.90;;;;;;5139142;27;20446;-69
2023/12/28 12:28:58;;;;;;;7.77;2.30;;;13.90;96.00;;;;;;5139272;27;20443;-69
2023/12/28 12:31:27;;;;;;;6.53;2.13;;;13.80;95.30;;;;;;5140358;27;20444;-69
2023/12/28 12:33:54;;;;;;;8.27;2.20;;;13.90;95.60;;;;;;5140162;27;20495;-69
2023/12/28 12:36:22;;;;;;;6.40;2.03;;;13.90;95.30;;;;;;5139829;27;20950;-69
2023/12/28 12:38:51;;;;;;;12.00;2.70;;;13.90;95.00;;;;;;5139145;27;20444;-69
2023/12/28 12:41:18;;;;;;;10.30;2.00;;;13.90;95.10;;;;;;5139104;27;20442;-69
2023/12/28 12:43:46;;;;;;;9.73;3.10;;;13.90;94.70;;;;;;5138519;27;20477;-69
2023/12/28 12:46:13;;;;;;;6.50;1.73;;;13.90;94.80;;;;;;5138705;27;20517;-68
2023/12/28 12:48:41;;;;;;;8.73;2.07;;;13.90;94.70;;;;;;5138011;27;20466;-69